createdAt,value
2018-03-22T00:00:29.852Z,0.00
2018-03-22T00:01:29.865Z,0.00
2018-03-22T00:02:29.853Z,0.00
2018-03-22T00:03:29.854Z,0.00
2018-03-22T00:04:29.854Z,0.00
2018-03-22T00:05:29.855Z,0.00
2018-03-22T00:06:29.854Z,0.00
2018-03-22T00:07:29.854Z,0.00
2018-03-22T00:08:29.860Z,0.00
2018-03-22T00:09:29.859Z,0.00
2018-03-22T00:10:29.855Z,0.00
2018-03-22T00:11:29.860Z,0.00
2018-03-22T00:12:29.859Z,0.00
2018-03-22T00:13:29.855Z,0.00
2018-03-22T00:14:29.861Z,0.00
2018-03-22T00:15:29.855Z,0.00
2018-03-22T00:16:29.856Z,0.00
2018-03-22T00:17:29.862Z,0.00
2018-03-22T00:18:29.862Z,0.00
2018-03-22T00:19:29.861Z,0.00
2018-03-22T00:20:29.856Z,0.00
2018-03-22T00:21:29.860Z,0.00
2018-03-22T00:22:29.862Z,0.00
2018-03-22T00:23:29.856Z,0.00
2018-03-22T00:24:29.857Z,0.00
2018-03-22T00:25:29.859Z,0.00
2018-03-22T00:26:29.862Z,0.00
2018-03-22T00:27:29.862Z,0.00
2018-03-22T00:28:29.862Z,0.00
2018-03-22T00:29:29.863Z,0.00
2018-03-22T00:30:29.858Z,0.00
2018-03-22T00:31:29.866Z,0.00
2018-03-22T00:32:29.866Z,0.00
2018-03-22T00:33:29.857Z,0.00
2018-03-22T00:34:29.863Z,0.00
2018-03-22T00:35:29.858Z,0.00
2018-03-22T00:36:29.855Z,0.00
2018-03-22T00:37:29.862Z,0.00
2018-03-22T00:38:29.864Z,0.00
2018-03-22T00:39:29.861Z,0.00
2018-03-22T00:40:29.856Z,0.00
2018-03-22T00:41:29.856Z,0.00
2018-03-22T00:42:29.856Z,0.00
2018-03-22T00:43:29.855Z,0.00
2018-03-22T00:44:29.864Z,0.00
2018-03-22T00:45:29.862Z,0.00
2018-03-22T00:46:29.869Z,0.00
2018-03-22T00:47:29.856Z,0.00
2018-03-22T00:48:29.858Z,0.00
2018-03-22T00:49:29.863Z,0.00
2018-03-22T00:50:29.856Z,0.00
2018-03-22T00:51:29.864Z,0.00
2018-03-22T00:52:29.856Z,0.00
2018-03-22T00:53:29.861Z,0.00
2018-03-22T00:54:29.866Z,0.00
2018-03-22T00:55:29.860Z,0.00
2018-03-22T00:56:29.861Z,0.00
2018-03-22T00:57:29.856Z,0.00
2018-03-22T00:58:29.869Z,0.00
2018-03-22T00:59:29.870Z,0.00
2018-03-22T01:00:29.860Z,0.00
2018-03-22T01:01:29.856Z,0.00
2018-03-22T01:02:29.861Z,0.00
2018-03-22T01:03:29.861Z,0.00
2018-03-22T01:04:29.857Z,0.00
2018-03-22T01:05:29.858Z,0.00
2018-03-22T01:06:29.855Z,0.00
2018-03-22T01:07:29.859Z,0.00
2018-03-22T01:08:29.860Z,0.00
2018-03-22T01:09:29.856Z,0.00
2018-03-22T01:10:29.861Z,0.00
2018-03-22T01:11:29.859Z,0.00
2018-03-22T01:12:29.854Z,0.00
2018-03-22T01:13:29.869Z,0.00
2018-03-22T01:14:29.860Z,0.00
2018-03-22T01:15:29.859Z,0.00
2018-03-22T01:16:29.861Z,0.00
2018-03-22T01:17:29.856Z,0.00
2018-03-22T01:18:29.854Z,0.00
2018-03-22T01:19:29.861Z,0.00
2018-03-22T01:20:29.853Z,0.00
2018-03-22T01:21:29.860Z,0.00
2018-03-22T01:22:29.854Z,0.00
2018-03-22T01:23:29.858Z,0.00
2018-03-22T01:24:29.854Z,0.00
2018-03-22T01:25:29.852Z,0.00
2018-03-22T01:26:29.859Z,0.00
2018-03-22T01:27:29.858Z,0.00
2018-03-22T01:28:29.853Z,0.00
2018-03-22T01:29:29.859Z,0.00
2018-03-22T01:30:29.861Z,0.00
2018-03-22T01:31:29.851Z,0.00
2018-03-22T01:32:29.863Z,0.00
2018-03-22T01:33:29.856Z,0.00
2018-03-22T01:34:29.851Z,0.00
2018-03-22T01:35:29.855Z,0.00
2018-03-22T01:36:29.850Z,0.00
2018-03-22T01:37:29.850Z,0.00
2018-03-22T01:38:29.850Z,0.00
2018-03-22T01:39:29.853Z,0.00
2018-03-22T01:40:29.847Z,0.00
2018-03-22T01:41:29.854Z,0.00
2018-03-22T01:42:29.855Z,0.00
2018-03-22T01:43:29.845Z,0.00
2018-03-22T01:44:29.852Z,0.00
2018-03-22T01:45:29.846Z,0.00
2018-03-22T01:46:29.846Z,0.00
2018-03-22T01:47:29.851Z,0.00
2018-03-22T01:48:29.851Z,0.00
2018-03-22T01:49:29.844Z,0.00
2018-03-22T01:50:29.845Z,0.00
2018-03-22T01:51:29.848Z,0.00
2018-03-22T01:52:29.842Z,0.00
2018-03-22T01:53:29.857Z,0.00
2018-03-22T01:54:29.842Z,0.00
2018-03-22T01:55:29.840Z,0.00
2018-03-22T01:56:29.846Z,0.00
2018-03-22T01:57:29.840Z,0.00
2018-03-22T01:58:29.840Z,0.00
2018-03-22T01:59:29.838Z,0.00
2018-03-22T02:00:29.844Z,0.00
2018-03-22T02:01:29.845Z,0.00
2018-03-22T02:02:29.846Z,0.00
2018-03-22T02:03:29.842Z,0.00
2018-03-22T02:04:29.842Z,0.00
2018-03-22T02:05:29.841Z,0.00
2018-03-22T02:06:29.842Z,0.00
2018-03-22T02:07:29.835Z,0.00
2018-03-22T02:08:29.840Z,0.00
2018-03-22T02:09:29.840Z,0.00
2018-03-22T02:10:29.834Z,0.00
2018-03-22T02:11:29.833Z,0.00
2018-03-22T02:12:29.832Z,0.00
2018-03-22T02:13:29.840Z,0.00
2018-03-22T02:14:29.837Z,0.00
2018-03-22T02:15:29.838Z,0.00
2018-03-22T02:16:29.830Z,0.00
2018-03-22T02:17:29.830Z,0.00
2018-03-22T02:18:29.830Z,0.00
2018-03-22T02:19:29.831Z,0.00
2018-03-22T02:20:29.835Z,0.00
2018-03-22T02:21:29.828Z,0.00
2018-03-22T02:22:29.835Z,0.00
2018-03-22T02:23:29.834Z,0.00
2018-03-22T02:24:29.829Z,0.00
2018-03-22T02:25:29.830Z,0.00
2018-03-22T02:26:29.827Z,0.00
2018-03-22T02:27:29.832Z,0.00
2018-03-22T02:28:29.833Z,0.00
2018-03-22T02:29:29.826Z,0.00
2018-03-22T02:30:29.832Z,0.00
2018-03-22T02:31:29.826Z,0.00
2018-03-22T02:32:29.832Z,0.00
2018-03-22T02:33:29.828Z,0.00
2018-03-22T02:34:29.830Z,0.00
2018-03-22T02:35:29.829Z,0.00
2018-03-22T02:36:29.829Z,0.00
2018-03-22T02:37:29.826Z,0.00
2018-03-22T02:38:29.834Z,0.00
2018-03-22T02:39:29.821Z,0.00
2018-03-22T02:40:29.821Z,0.00
2018-03-22T02:41:29.826Z,0.00
2018-03-22T02:42:29.823Z,0.00
2018-03-22T02:43:29.828Z,0.00
2018-03-22T02:44:29.818Z,0.00
2018-03-22T02:45:29.817Z,0.00
2018-03-22T02:46:29.824Z,0.00
2018-03-22T02:47:29.822Z,0.00
2018-03-22T02:48:29.817Z,0.00
2018-03-22T02:49:29.821Z,0.00
2018-03-22T02:50:29.821Z,0.00
2018-03-22T02:51:29.821Z,0.00
2018-03-22T02:52:29.821Z,0.00
2018-03-22T02:53:29.819Z,0.00
2018-03-22T02:54:29.814Z,0.00
2018-03-22T02:55:29.815Z,0.00
2018-03-22T02:56:29.812Z,0.00
2018-03-22T02:57:29.818Z,0.00
2018-03-22T02:58:29.817Z,0.00
2018-03-22T02:59:29.820Z,0.00
2018-03-22T03:00:29.872Z,0.00
2018-03-22T03:01:29.813Z,0.00
2018-03-22T03:02:29.887Z,0.00
2018-03-22T03:03:29.809Z,0.00
2018-03-22T03:04:29.810Z,0.00
2018-03-22T03:05:29.811Z,0.00
2018-03-22T03:06:29.815Z,0.00
2018-03-22T03:07:29.811Z,0.00
2018-03-22T03:08:29.806Z,0.00
2018-03-22T03:09:29.812Z,0.00
2018-03-22T03:10:29.806Z,0.00
2018-03-22T03:11:29.810Z,0.00
2018-03-22T03:12:29.810Z,0.00
2018-03-22T03:13:29.813Z,0.00
2018-03-22T03:14:29.813Z,0.00
2018-03-22T03:15:29.801Z,0.00
2018-03-22T03:16:29.807Z,0.00
2018-03-22T03:17:29.808Z,0.00
2018-03-22T03:18:29.802Z,0.00
2018-03-22T03:19:29.800Z,0.00
2018-03-22T03:20:29.803Z,0.00
2018-03-22T03:21:29.798Z,0.00
2018-03-22T03:22:29.800Z,0.00
2018-03-22T03:23:29.798Z,0.00
2018-03-22T03:24:29.804Z,0.00
2018-03-22T03:25:29.796Z,0.00
2018-03-22T03:26:29.797Z,0.00
2018-03-22T03:27:29.796Z,0.00
2018-03-22T03:28:29.794Z,0.00
2018-03-22T03:29:29.794Z,0.00
2018-03-22T03:30:29.823Z,0.00
2018-03-22T03:31:29.801Z,0.00
2018-03-22T03:32:29.792Z,0.00
2018-03-22T03:33:29.792Z,0.00
2018-03-22T03:34:29.801Z,0.00
2018-03-22T03:35:29.791Z,0.00
2018-03-22T03:36:29.795Z,0.00
2018-03-22T03:37:29.791Z,0.00
2018-03-22T03:38:29.787Z,0.00
2018-03-22T03:39:29.791Z,0.00
2018-03-22T03:40:29.788Z,0.00
2018-03-22T03:41:29.830Z,0.00
2018-03-22T03:42:29.786Z,0.00
2018-03-22T03:43:29.789Z,0.00
2018-03-22T03:44:29.782Z,0.00
2018-03-22T03:45:29.788Z,0.00
2018-03-22T03:46:29.783Z,0.00
2018-03-22T03:47:29.782Z,0.00
2018-03-22T03:48:29.786Z,0.00
2018-03-22T03:49:29.786Z,0.00
2018-03-22T03:50:29.780Z,0.00
2018-03-22T03:51:29.778Z,0.00
2018-03-22T03:52:29.777Z,0.00
2018-03-22T03:53:29.776Z,0.00
2018-03-22T03:54:29.784Z,0.00
2018-03-22T03:55:29.774Z,0.00
2018-03-22T03:56:29.774Z,0.00
2018-03-22T03:57:29.776Z,0.00
2018-03-22T03:58:29.774Z,0.00
2018-03-22T03:59:29.778Z,0.00
2018-03-22T04:00:29.776Z,0.00
2018-03-22T04:01:29.779Z,0.00
2018-03-22T04:02:29.776Z,0.00
2018-03-22T04:03:29.976Z,0.00
2018-03-22T04:04:29.774Z,0.00
2018-03-22T04:05:29.782Z,0.00
2018-03-22T04:06:29.772Z,0.00
2018-03-22T04:07:29.766Z,0.00
2018-03-22T04:08:29.773Z,0.00
2018-03-22T04:09:29.765Z,0.00
2018-03-22T04:10:29.764Z,0.00
2018-03-22T04:11:29.770Z,0.00
2018-03-22T04:12:29.764Z,0.00
2018-03-22T04:13:29.762Z,0.00
2018-03-22T04:14:29.768Z,0.00
2018-03-22T04:15:29.766Z,0.00
2018-03-22T04:16:29.766Z,0.00
2018-03-22T04:17:29.765Z,0.00
2018-03-22T04:18:29.760Z,0.00
2018-03-22T04:19:29.759Z,0.00
2018-03-22T04:20:29.761Z,0.00
2018-03-22T04:21:29.763Z,0.00
2018-03-22T04:22:29.758Z,0.00
2018-03-22T04:23:29.763Z,0.00
2018-03-22T04:24:29.756Z,0.00
2018-03-22T04:25:29.755Z,0.00
2018-03-22T04:26:29.758Z,0.00
2018-03-22T04:27:29.753Z,0.00
2018-03-22T04:28:29.759Z,0.00
2018-03-22T04:29:29.760Z,0.00
2018-03-22T04:30:29.752Z,0.00
2018-03-22T04:31:29.752Z,0.00
2018-03-22T04:32:29.763Z,0.00
2018-03-22T04:33:29.750Z,0.00
2018-03-22T04:34:29.810Z,0.00
2018-03-22T04:35:29.749Z,0.00
2018-03-22T04:36:29.754Z,0.00
2018-03-22T04:37:29.753Z,0.00
2018-03-22T04:38:29.753Z,0.00
2018-03-22T04:39:29.751Z,0.00
2018-03-22T04:40:29.754Z,0.00
2018-03-22T04:41:29.744Z,0.00
2018-03-22T04:42:29.753Z,0.00
2018-03-22T04:43:29.743Z,0.00
2018-03-22T04:44:29.748Z,0.00
2018-03-22T04:45:29.742Z,0.00
2018-03-22T04:46:29.749Z,0.00
2018-03-22T04:47:29.747Z,0.00
2018-03-22T04:48:29.751Z,0.00
2018-03-22T04:49:29.739Z,0.00
2018-03-22T04:50:29.745Z,0.00
2018-03-22T04:51:29.738Z,0.00
2018-03-22T04:52:29.742Z,0.00
2018-03-22T04:53:29.742Z,0.00
2018-03-22T04:54:29.736Z,0.00
2018-03-22T04:55:29.753Z,0.00
2018-03-22T04:56:29.735Z,0.00
2018-03-22T04:57:29.742Z,0.00
2018-03-22T04:58:29.741Z,0.00
2018-03-22T04:59:29.738Z,0.00
2018-03-22T05:00:29.733Z,0.00
2018-03-22T05:01:29.733Z,0.00
2018-03-22T05:02:29.737Z,0.00
2018-03-22T05:03:29.731Z,0.00
2018-03-22T05:04:29.738Z,0.00
2018-03-22T05:05:29.734Z,0.00
2018-03-22T05:06:29.734Z,0.00
2018-03-22T05:07:29.738Z,0.00
2018-03-22T05:08:29.725Z,4.00
2018-03-22T05:09:29.729Z,0.00
2018-03-22T05:10:29.724Z,0.00
2018-03-22T05:11:29.722Z,4.00
2018-03-22T05:12:29.738Z,0.00
2018-03-22T05:13:29.728Z,4.00
2018-03-22T05:14:29.722Z,0.00
2018-03-22T05:15:29.728Z,0.00
2018-03-22T05:16:29.722Z,4.00
2018-03-22T05:17:29.718Z,4.00
2018-03-22T05:18:29.728Z,4.00
2018-03-22T05:19:29.718Z,4.00
2018-03-22T05:20:29.716Z,4.00
2018-03-22T05:21:29.716Z,4.00
2018-03-22T05:22:29.720Z,8.00
2018-03-22T05:23:29.713Z,8.00
2018-03-22T05:24:29.713Z,12.00
2018-03-22T05:25:29.713Z,8.00
2018-03-22T05:26:29.718Z,12.00
2018-03-22T05:27:29.716Z,12.00
2018-03-22T05:28:29.716Z,16.00
2018-03-22T05:29:29.715Z,16.00
2018-03-22T05:30:29.716Z,16.00
2018-03-22T05:31:29.709Z,20.00
2018-03-22T05:32:29.714Z,24.00
2018-03-22T05:33:29.710Z,24.00
2018-03-22T05:34:29.711Z,28.00
2018-03-22T05:35:29.708Z,28.00
2018-03-22T05:36:29.711Z,32.00
2018-03-22T05:37:29.710Z,32.00
2018-03-22T05:38:29.703Z,36.00
2018-03-22T05:39:29.701Z,36.00
2018-03-22T05:40:29.701Z,40.00
2018-03-22T05:41:29.706Z,40.00
2018-03-22T05:42:29.707Z,44.00
2018-03-22T05:43:29.704Z,48.00
2018-03-22T05:44:29.697Z,52.00
2018-03-22T05:45:29.704Z,52.00
2018-03-22T05:46:29.697Z,56.00
2018-03-22T05:47:29.695Z,56.00
2018-03-22T05:48:29.702Z,60.00
2018-03-22T05:49:29.695Z,64.00
2018-03-22T05:50:29.699Z,68.00
2018-03-22T05:51:29.699Z,72.00
2018-03-22T05:52:29.702Z,76.00
2018-03-22T05:53:29.697Z,76.00
2018-03-22T05:54:29.692Z,80.00
2018-03-22T05:55:29.695Z,84.00
2018-03-22T05:56:29.690Z,88.00
2018-03-22T05:57:29.692Z,92.00
2018-03-22T05:58:29.694Z,96.00
2018-03-22T05:59:29.687Z,100.00
2018-03-22T06:00:29.692Z,100.00
2018-03-22T06:01:29.685Z,100.00
2018-03-22T06:02:29.689Z,104.00
2018-03-22T06:03:29.686Z,104.00
2018-03-22T06:04:29.687Z,108.00
2018-03-22T06:05:29.690Z,108.00
2018-03-22T06:06:29.691Z,108.00
2018-03-22T06:07:29.680Z,112.00
2018-03-22T06:08:29.680Z,112.00
2018-03-22T06:09:29.678Z,120.00
2018-03-22T06:10:29.683Z,120.00
2018-03-22T06:11:29.681Z,124.00
2018-03-22T06:12:29.678Z,124.00
2018-03-22T06:13:29.681Z,124.00
2018-03-22T06:14:29.674Z,128.00
2018-03-22T06:15:29.680Z,128.00
2018-03-22T06:16:29.677Z,132.00
2018-03-22T06:17:29.716Z,140.00
2018-03-22T06:18:29.677Z,144.00
2018-03-22T06:19:29.674Z,144.00
2018-03-22T06:20:29.669Z,152.00
2018-03-22T06:21:29.671Z,156.00
2018-03-22T06:22:29.669Z,164.00
2018-03-22T06:23:29.668Z,164.00
2018-03-22T06:24:29.665Z,168.00
2018-03-22T06:25:29.665Z,168.00
2018-03-22T06:26:29.673Z,168.00
2018-03-22T06:27:29.669Z,168.00
2018-03-22T06:28:29.664Z,168.00
2018-03-22T06:29:29.667Z,168.00
2018-03-22T06:30:29.663Z,168.00
2018-03-22T06:31:29.669Z,168.00
2018-03-22T06:32:29.662Z,168.00
2018-03-22T06:33:29.661Z,168.00
2018-03-22T06:34:29.664Z,168.00
2018-03-22T06:35:29.656Z,172.00
2018-03-22T06:36:29.658Z,172.00
2018-03-22T06:37:29.657Z,176.00
2018-03-22T06:38:29.655Z,176.00
2018-03-22T06:39:29.661Z,180.00
2018-03-22T06:40:29.658Z,180.00
2018-03-22T06:41:29.660Z,180.00
2018-03-22T06:42:29.658Z,184.00
2018-03-22T06:43:29.658Z,184.00
2018-03-22T06:44:29.652Z,184.00
2018-03-22T06:45:29.652Z,188.00
2018-03-22T06:46:29.660Z,188.00
2018-03-22T06:47:29.651Z,192.00
2018-03-22T06:48:29.648Z,192.00
2018-03-22T06:49:29.649Z,200.00
2018-03-22T06:50:29.647Z,196.00
2018-03-22T06:51:29.647Z,200.00
2018-03-22T06:52:29.659Z,200.00
2018-03-22T06:53:29.649Z,204.00
2018-03-22T06:54:29.645Z,204.00
2018-03-22T06:55:29.650Z,208.00
2018-03-22T06:56:29.650Z,212.00
2018-03-22T06:57:29.643Z,220.00
2018-03-22T06:58:29.648Z,264.00
2018-03-22T06:59:29.647Z,320.00
2018-03-22T07:00:29.641Z,360.00
2018-03-22T07:01:29.650Z,396.00
2018-03-22T07:02:29.650Z,408.00
2018-03-22T07:03:29.644Z,416.00
2018-03-22T07:04:29.644Z,424.00
2018-03-22T07:05:29.638Z,432.00
2018-03-22T07:06:29.645Z,436.00
2018-03-22T07:07:29.636Z,444.00
2018-03-22T07:08:29.643Z,452.00
2018-03-22T07:09:29.643Z,456.00
2018-03-22T07:10:29.636Z,460.00
2018-03-22T07:11:29.633Z,468.00
2018-03-22T07:12:29.634Z,472.00
2018-03-22T07:13:29.640Z,480.00
2018-03-22T07:14:29.639Z,484.00
2018-03-22T07:15:29.634Z,488.00
2018-03-22T07:16:29.639Z,492.00
2018-03-22T07:17:29.641Z,496.00
2018-03-22T07:18:29.638Z,508.00
2018-03-22T07:19:29.635Z,512.00
2018-03-22T07:20:29.637Z,524.00
2018-03-22T07:21:29.641Z,532.00
2018-03-22T07:22:29.638Z,536.00
2018-03-22T07:23:29.630Z,544.00
2018-03-22T07:24:29.637Z,552.00
2018-03-22T07:25:29.681Z,560.00
2018-03-22T07:26:29.636Z,576.00
2018-03-22T07:27:29.631Z,580.00
2018-03-22T07:28:29.631Z,592.00
2018-03-22T07:29:29.637Z,600.00
2018-03-22T07:30:29.641Z,612.00
2018-03-22T07:31:29.639Z,620.00
2018-03-22T07:32:29.636Z,632.00
2018-03-22T07:33:29.636Z,644.00
2018-03-22T07:34:29.633Z,656.00
2018-03-22T07:35:29.631Z,668.00
2018-03-22T07:36:29.633Z,680.00
2018-03-22T07:37:29.637Z,688.00
2018-03-22T07:38:29.638Z,676.00
2018-03-22T07:39:29.641Z,704.00
2018-03-22T07:40:29.635Z,700.00
2018-03-22T07:41:29.637Z,732.00
2018-03-22T07:42:29.632Z,708.00
2018-03-22T07:43:29.638Z,688.00
2018-03-22T07:44:29.638Z,708.00
2018-03-22T07:45:29.635Z,736.00
2018-03-22T07:46:29.640Z,748.00
2018-03-22T07:47:29.639Z,780.00
2018-03-22T07:48:29.640Z,796.00
2018-03-22T07:49:29.635Z,816.00
2018-03-22T07:50:29.640Z,840.00
2018-03-22T07:51:29.637Z,852.00
2018-03-22T07:52:29.635Z,868.00
2018-03-22T07:53:29.636Z,896.00
2018-03-22T07:54:29.638Z,904.00
2018-03-22T07:55:29.639Z,912.00
2018-03-22T07:56:29.637Z,924.00
2018-03-22T07:57:29.638Z,948.00
2018-03-22T07:58:29.646Z,956.00
2018-03-22T07:59:29.646Z,956.00
2018-03-22T08:00:29.647Z,968.00
2018-03-22T08:01:29.644Z,976.00
2018-03-22T08:02:29.648Z,944.00
2018-03-22T08:03:29.642Z,980.00
2018-03-22T08:04:29.659Z,1032.00
2018-03-22T08:05:29.644Z,1084.00
2018-03-22T08:06:29.646Z,1084.00
2018-03-22T08:07:29.651Z,1100.00
2018-03-22T08:08:29.654Z,1128.00
2018-03-22T08:09:29.650Z,1136.00
2018-03-22T08:10:29.650Z,1156.00
2018-03-22T08:11:29.656Z,1172.00
2018-03-22T08:12:29.665Z,1228.00
2018-03-22T08:13:29.657Z,1260.00
2018-03-22T08:14:29.659Z,1280.00
2018-03-22T08:15:29.655Z,1296.00
2018-03-22T08:16:29.654Z,1316.00
2018-03-22T08:17:29.655Z,1340.00
2018-03-22T08:18:29.664Z,1340.00
2018-03-22T08:19:29.662Z,1364.00
2018-03-22T08:20:29.666Z,1388.00
2018-03-22T08:21:29.661Z,1408.00
2018-03-22T08:22:29.667Z,1460.00
2018-03-22T08:23:29.663Z,1476.00
2018-03-22T08:24:29.666Z,1496.00
2018-03-22T08:25:29.672Z,1520.00
2018-03-22T08:26:29.666Z,1544.00
2018-03-22T08:27:29.677Z,1556.00
2018-03-22T08:28:29.674Z,1576.00
2018-03-22T08:29:29.676Z,1600.00
2018-03-22T08:30:29.680Z,1628.00
2018-03-22T08:31:29.732Z,1648.00
2018-03-22T08:32:29.676Z,1676.00
2018-03-22T08:33:29.679Z,1660.00
2018-03-22T08:34:29.684Z,1704.00
2018-03-22T08:35:29.686Z,1736.00
2018-03-22T08:36:29.681Z,1752.00
2018-03-22T08:37:29.688Z,1768.00
2018-03-22T08:38:29.691Z,1788.00
2018-03-22T08:39:29.691Z,1808.00
2018-03-22T08:40:29.688Z,1832.00
2018-03-22T08:41:29.695Z,1860.00
2018-03-22T08:42:29.698Z,1816.00
2018-03-22T08:43:29.694Z,1808.00
2018-03-22T08:44:29.702Z,1876.00
2018-03-22T08:45:29.704Z,1920.00
2018-03-22T08:46:29.709Z,1952.00
2018-03-22T08:47:29.702Z,1972.00
2018-03-22T08:48:29.705Z,2008.00
2018-03-22T08:49:29.706Z,2032.00
2018-03-22T08:50:29.707Z,2044.00
2018-03-22T08:51:29.716Z,2064.00
2018-03-22T08:52:29.709Z,2088.00
2018-03-22T08:53:29.719Z,2104.00
2018-03-22T08:54:29.715Z,2124.00
2018-03-22T08:55:29.723Z,2128.00
2018-03-22T08:56:29.725Z,2168.00
2018-03-22T08:57:29.723Z,2192.00
2018-03-22T08:58:29.729Z,2228.00
2018-03-22T08:59:29.730Z,2272.00
2018-03-22T09:00:29.732Z,2296.00
2018-03-22T09:01:29.741Z,2320.00
2018-03-22T09:02:29.738Z,2356.00
2018-03-22T09:03:29.737Z,2372.00
2018-03-22T09:04:29.736Z,2360.00
2018-03-22T09:05:29.746Z,2428.00
2018-03-22T09:06:29.747Z,2424.00
2018-03-22T09:07:29.743Z,2460.00
2018-03-22T09:08:29.752Z,2492.00
2018-03-22T09:09:29.755Z,2544.00
2018-03-22T09:10:29.758Z,2588.00
2018-03-22T09:11:29.762Z,2632.00
2018-03-22T09:12:29.761Z,2664.00
2018-03-22T09:13:29.760Z,2684.00
2018-03-22T09:14:29.762Z,2732.00
2018-03-22T09:15:29.768Z,2736.00
2018-03-22T09:16:29.772Z,2748.00
2018-03-22T09:17:29.769Z,2780.00
2018-03-22T09:18:29.777Z,2836.00
2018-03-22T09:19:29.785Z,2836.00
2018-03-22T09:20:29.781Z,2888.00
2018-03-22T09:21:29.781Z,2916.00
2018-03-22T09:22:29.813Z,2916.00
2018-03-22T09:23:29.793Z,2980.00
2018-03-22T09:24:29.794Z,3036.00
2018-03-22T09:25:29.793Z,3008.00
2018-03-22T09:26:29.806Z,3080.00
2018-03-22T09:27:29.799Z,3108.00
2018-03-22T09:28:29.802Z,3124.00
2018-03-22T09:29:29.808Z,3084.00
2018-03-22T09:30:29.809Z,3140.00
2018-03-22T09:31:29.818Z,3108.00
2018-03-22T09:32:29.821Z,3168.00
2018-03-22T09:33:29.823Z,3160.00
2018-03-22T09:34:29.824Z,3228.00
2018-03-22T09:35:29.830Z,3224.00
2018-03-22T09:36:29.837Z,3240.00
2018-03-22T09:37:29.834Z,3284.00
2018-03-22T09:38:29.879Z,3376.00
2018-03-22T09:39:29.846Z,3292.00
2018-03-22T09:40:29.850Z,3404.00
2018-03-22T09:41:29.856Z,3360.00
2018-03-22T09:42:29.861Z,3408.00
2018-03-22T09:43:29.861Z,3284.00
2018-03-22T09:44:29.862Z,3360.00
2018-03-22T09:45:29.871Z,3336.00
2018-03-22T09:46:29.876Z,3508.00
2018-03-22T09:47:29.873Z,3764.00
2018-03-22T09:48:29.878Z,3812.00
2018-03-22T09:49:29.882Z,3732.00
2018-03-22T09:50:29.889Z,3704.00
2018-03-22T09:51:29.892Z,3712.00
2018-03-22T09:52:29.896Z,3816.00
2018-03-22T09:53:29.904Z,3884.00
2018-03-22T09:54:29.905Z,4012.00
2018-03-22T09:55:29.914Z,4116.00
2018-03-22T09:56:29.918Z,3912.00
2018-03-22T09:57:29.919Z,2984.00
2018-03-22T09:58:29.930Z,3252.00
2018-03-22T09:59:29.928Z,3240.00
2018-03-22T10:00:29.933Z,3240.00
2018-03-22T10:01:29.940Z,3992.00
2018-03-22T10:02:29.948Z,3536.00
2018-03-22T10:03:29.952Z,3840.00
2018-03-22T10:04:29.956Z,3752.00
2018-03-22T10:05:29.958Z,3716.00
2018-03-22T10:06:29.967Z,3784.00
2018-03-22T10:07:29.972Z,4096.00
2018-03-22T10:08:29.997Z,4112.00
2018-03-22T10:09:29.978Z,4188.00
2018-03-22T10:10:29.989Z,4272.00
2018-03-22T10:11:29.991Z,4108.00
2018-03-22T10:12:29.994Z,4396.00
2018-03-22T10:13:29.999Z,4472.00
2018-03-22T10:14:30.006Z,4504.00
2018-03-22T10:15:30.027Z,4520.00
2018-03-22T10:16:30.020Z,4540.00
2018-03-22T10:17:30.034Z,4552.00
2018-03-22T10:18:30.029Z,4292.00
2018-03-22T10:19:30.033Z,3968.00
2018-03-22T10:20:30.038Z,4240.00
2018-03-22T10:21:30.044Z,4132.00
2018-03-22T10:22:30.053Z,4500.00
2018-03-22T10:23:30.057Z,4436.00
2018-03-22T10:24:30.067Z,4468.00
2018-03-22T10:25:30.074Z,4520.00
2018-03-22T10:26:30.078Z,4504.00
2018-03-22T10:27:30.085Z,4524.00
2018-03-22T10:28:30.084Z,4524.00
2018-03-22T10:29:30.091Z,4524.00
2018-03-22T10:30:30.099Z,4540.00
2018-03-22T10:31:30.114Z,4544.00
2018-03-22T10:32:30.116Z,4528.00
2018-03-22T10:33:30.125Z,4548.00
2018-03-22T10:34:30.129Z,4576.00
2018-03-22T10:35:30.138Z,4580.00
2018-03-22T10:36:30.140Z,4580.00
2018-03-22T10:37:30.141Z,4580.00
2018-03-22T10:38:30.153Z,4636.00
2018-03-22T10:39:30.162Z,4620.00
2018-03-22T10:40:30.158Z,4628.00
2018-03-22T10:41:30.166Z,4652.00
2018-03-22T10:42:30.173Z,4284.00
2018-03-22T10:43:30.183Z,4020.00
2018-03-22T10:44:30.190Z,4560.00
2018-03-22T10:45:30.197Z,4240.00
2018-03-22T10:46:30.199Z,4432.00
2018-03-22T10:47:30.205Z,4828.00
2018-03-22T10:48:30.217Z,4836.00
2018-03-22T10:49:30.217Z,4816.00
2018-03-22T10:50:30.229Z,4848.00
2018-03-22T10:51:30.238Z,4832.00
2018-03-22T10:52:30.238Z,4828.00
2018-03-22T10:53:30.244Z,4844.00
2018-03-22T10:54:30.253Z,4844.00
2018-03-22T10:55:30.258Z,4868.00
2018-03-22T10:56:30.263Z,4876.00
2018-03-22T10:57:30.279Z,4888.00
2018-03-22T10:58:30.285Z,4884.00
2018-03-22T10:59:30.291Z,4928.00
2018-03-22T11:00:30.294Z,4936.00
2018-03-22T11:01:30.307Z,4908.00
2018-03-22T11:02:30.316Z,4780.00
2018-03-22T11:03:30.321Z,4576.00
2018-03-22T11:04:30.323Z,4536.00
2018-03-22T11:05:30.336Z,4172.00
2018-03-22T11:06:30.345Z,4380.00
2018-03-22T11:07:30.352Z,4868.00
2018-03-22T11:08:30.359Z,4812.00
2018-03-22T11:09:30.366Z,4780.00
2018-03-22T11:10:30.374Z,4732.00
2018-03-22T11:11:30.382Z,4568.00
2018-03-22T11:12:30.384Z,4596.00
2018-03-22T11:13:30.398Z,4792.00
2018-03-22T11:14:30.408Z,4640.00
2018-03-22T11:15:30.415Z,4652.00
2018-03-22T11:16:30.419Z,4768.00
2018-03-22T11:17:30.423Z,4780.00
2018-03-22T11:18:30.431Z,4756.00
2018-03-22T11:19:30.448Z,4600.00
2018-03-22T11:20:30.447Z,4872.00
2018-03-22T11:21:30.456Z,4860.00
2018-03-22T11:22:30.475Z,4864.00
2018-03-22T11:23:30.478Z,4824.00
2018-03-22T11:24:30.486Z,4828.00
2018-03-22T11:25:30.485Z,4828.00
2018-03-22T11:26:30.502Z,4836.00
2018-03-22T11:27:30.535Z,4864.00
2018-03-22T11:28:30.516Z,4868.00
2018-03-22T11:29:30.524Z,4888.00
2018-03-22T11:30:30.534Z,4980.00
2018-03-22T11:31:30.543Z,5032.00
2018-03-22T11:32:30.544Z,5104.00
2018-03-22T11:33:30.556Z,4892.00
2018-03-22T11:34:30.565Z,4212.00
2018-03-22T11:35:30.574Z,5612.00
2018-03-22T11:36:30.581Z,5184.00
2018-03-22T11:37:30.586Z,3972.00
2018-03-22T11:38:30.597Z,4628.00
2018-03-22T11:39:30.607Z,5056.00
2018-03-22T11:40:30.615Z,5512.00
2018-03-22T11:41:30.624Z,4496.00
2018-03-22T11:42:30.626Z,5536.00
2018-03-22T11:43:30.635Z,4704.00
2018-03-22T11:44:30.649Z,6336.00
2018-03-22T11:45:30.659Z,5928.00
2018-03-22T11:46:30.661Z,3752.00
2018-03-22T11:47:30.668Z,4164.00
2018-03-22T11:48:30.679Z,5504.00
2018-03-22T11:49:30.692Z,5224.00
2018-03-22T11:50:30.702Z,5612.00
2018-03-22T11:51:30.708Z,5396.00
2018-03-22T11:52:30.713Z,4116.00
2018-03-22T11:53:30.722Z,4868.00
2018-03-22T11:54:30.732Z,3576.00
2018-03-22T11:55:30.746Z,4220.00
2018-03-22T11:56:30.783Z,4020.00
2018-03-22T11:57:30.762Z,5232.00
2018-03-22T11:58:30.773Z,5304.00
2018-03-22T11:59:30.781Z,5296.00
2018-03-22T12:00:30.789Z,5460.00
2018-03-22T12:01:30.798Z,5632.00
2018-03-22T12:02:30.803Z,5660.00
2018-03-22T12:03:30.811Z,5020.00
2018-03-22T12:04:30.821Z,5624.00
2018-03-22T12:05:30.830Z,5644.00
2018-03-22T12:06:30.847Z,5792.00
2018-03-22T12:07:30.850Z,5824.00
2018-03-22T12:08:30.864Z,5720.00
2018-03-22T12:09:30.869Z,5936.00
2018-03-22T12:10:30.885Z,5808.00
2018-03-22T12:11:30.897Z,5684.00
2018-03-22T12:12:30.965Z,5252.00
2018-03-22T12:13:30.916Z,4012.00
2018-03-22T12:14:30.924Z,3984.00
2018-03-22T12:15:30.931Z,4936.00
2018-03-22T12:16:30.948Z,5820.00
2018-03-22T12:17:30.954Z,6180.00
2018-03-22T12:18:30.965Z,6288.00
2018-03-22T12:19:30.979Z,5788.00
2018-03-22T12:20:30.990Z,6352.00
2018-03-22T12:21:31.001Z,5104.00
2018-03-22T12:22:31.009Z,3216.00
2018-03-22T12:23:31.024Z,3084.00
2018-03-22T12:24:31.089Z,2580.00
2018-03-22T12:25:31.041Z,4064.00
2018-03-22T12:26:31.053Z,2236.00
2018-03-22T12:27:31.062Z,2208.00
2018-03-22T12:28:31.081Z,2184.00
2018-03-22T12:29:31.085Z,2184.00
2018-03-22T12:30:31.096Z,2200.00
2018-03-22T12:31:31.112Z,2236.00
2018-03-22T12:32:31.119Z,2232.00
2018-03-22T12:33:31.130Z,2196.00
2018-03-22T12:34:31.148Z,2164.00
2018-03-22T12:35:31.154Z,2124.00
2018-03-22T12:36:31.163Z,2100.00
2018-03-22T12:37:31.168Z,2120.00
2018-03-22T12:38:31.184Z,2168.00
2018-03-22T12:39:31.187Z,2180.00
2018-03-22T12:40:31.196Z,2156.00
2018-03-22T12:41:31.210Z,2108.00